Time;durP1;ratioP1;P1;durP2;ratioP2;P2;SDS_P1;SDS_P2;PMS_P1;PMS_P2;Temp;Humidity;BMP_temperature;BMP_pressure;BME280_temperature;BME280_humidity;BME280_pressure;Samples;Min_cycle;Max_cycle;Signal;HPM_P1;HPM_P2
2022/02/11 00:08:20;;;;;;;0.85;0.85;;;;;;;6.11;100.00;100831.69;5074169;28;20055;-80
2022/02/11 00:11:36;;;;;;;0.32;0.32;;;;;;;6.20;100.00;100827.56;5073371;28;20055;-80
2022/02/11 00:15:01;;;;;;;2.30;0.82;;;;;;;6.27;100.00;100833.78;5073279;28;20051;-80
2022/02/11 00:18:05;;;;;;;1.50;0.70;;;;;;;6.36;100.00;100831.25;5073334;28;20071;-80
2022/02/11 00:21:08;;;;;;;0.32;0.25;;;;;;;6.41;100.00;100827.22;5073018;28;20060;-80
2022/02/11 00:24:13;;;;;;;5.28;0.47;;;;;;;6.53;100.00;100841.19;5073014;28;20056;-80
2022/02/11 00:27:52;;;;;;;0.20;0.20;;;;;;;6.67;100.00;100851.22;5072590;28;20051;-80
2022/02/11 00:31:03;;;;;;;13.25;1.30;;;;;;;6.76;100.00;100849.44;5073607;28;20051;-80
2022/02/11 00:34:06;;;;;;;1.13;0.50;;;;;;;6.78;100.00;100849.78;5073411;28;20402;-80
2022/02/11 00:37:14;;;;;;;0.65;0.52;;;;;;;6.77;100.00;100859.31;5073351;28;20063;-80
2022/02/11 00:40:37;;;;;;;19.95;0.90;;;;;;;6.79;100.00;100861.66;5073307;28;20051;-80
2022/02/11 00:53:28;;;;;;;7.38;1.13;;;;;;;6.76;100.00;100871.59;5073150;28;20051;-80
2022/02/11 01:04:00;;;;;;;0.13;0.13;;;;;;;6.43;100.00;100875.34;5072530;28;20071;-80
2022/02/11 01:07:04;;;;;;;0.30;0.30;;;;;;;6.32;100.00;100882.31;5071917;28;20060;-80
2022/02/11 01:10:08;;;;;;;0.20;0.20;;;;;;;6.22;100.00;100880.47;5072528;28;20051;-80
2022/02/11 01:13:12;;;;;;;12.40;0.63;;;;;;;6.12;100.00;100882.25;5072062;28;20052;-80
2022/02/11 01:16:22;;;;;;;0.25;0.25;;;;;;;6.07;100.00;100875.19;5071852;28;20063;-80
2022/02/11 01:19:38;;;;;;;0.10;0.10;;;;;;;5.96;100.00;100880.13;5072459;28;20055;-80
2022/02/11 01:31:59;;;;;;;6.72;0.70;;;;;;;5.93;100.00;100903.06;5072073;28;20055;-80
2022/02/11 01:51:21;;;;;;;17.10;0.75;;;;;;;5.99;100.00;100934.59;5072136;28;20059;-80
2022/02/11 01:58:20;;;;;;;3.70;0.40;;;;;;;6.07;100.00;100938.78;5062941;28;20051;-80
2022/02/11 02:58:28;;;;;;;0.80;0.30;;;;;;;6.00;100.00;101008.03;5066092;28;20064;-79
2022/02/11 03:58:01;;;;;;;0.65;0.65;;;;;;;4.88;100.00;101034.16;5052724;28;20060;-79
2022/02/11 05:01:19;;;;;;;18.33;1.85;;;;;;;5.40;100.00;101168.19;5051980;28;20048;-79
2022/02/11 05:04:23;;;;;;;9.40;1.50;;;;;;;5.48;100.00;101166.91;5051242;28;20056;-79
2022/02/11 05:07:26;;;;;;;5.20;1.33;;;;;;;5.48;100.00;101169.69;5038942;28;20056;-79
2022/02/11 05:10:30;;;;;;;10.15;1.15;;;;;;;5.53;100.00;101176.75;5031110;28;20064;-80
2022/02/11 05:13:33;;;;;;;0.65;0.32;;;;;;;5.51;100.00;101174.41;5032623;28;20052;-80
2022/02/11 05:16:37;;;;;;;0.90;0.90;;;;;;;5.40;100.00;101176.47;5036276;28;20048;-80
2022/02/11 05:19:40;;;;;;;0.40;0.30;;;;;;;5.20;100.00;101181.75;5051844;28;20079;-79
2022/02/11 05:22:44;;;;;;;0.40;0.32;;;;;;;5.06;100.00;101189.38;5051078;28;20056;-80
2022/02/11 05:25:47;;;;;;;0.30;0.30;;;;;;;5.04;100.00;101184.28;5050985;28;20513;-80
2022/02/11 05:28:51;;;;;;;0.60;0.30;;;;;;;5.06;100.00;101198.47;5050659;28;20486;-79
2022/02/11 05:31:54;;;;;;;0.73;0.63;;;;;;;5.10;100.00;101204.72;5050396;28;20056;-80
2022/02/11 05:34:58;;;;;;;0.63;0.43;;;;;;;5.16;100.00;101208.63;5050573;28;20055;-80
2022/02/11 05:38:01;;;;;;;0.85;0.85;;;;;;;5.25;100.00;101210.94;5051380;28;20052;-80
2022/02/11 05:41:05;;;;;;;1.17;0.88;;;;;;;5.34;100.00;101212.03;5050496;28;20048;-79
2022/02/11 05:44:08;;;;;;;2.58;1.23;;;;;;;5.39;100.00;101216.34;5050629;28;20064;-79
2022/02/11 05:47:12;;;;;;;1.08;0.65;;;;;;;5.43;100.00;101210.78;5050371;28;20108;-78
2022/02/11 05:50:15;;;;;;;0.30;0.30;;;;;;;5.47;100.00;101211.53;5051244;28;20513;-80
2022/02/11 05:53:18;;;;;;;1.88;0.73;;;;;;;5.51;100.00;101215.84;5050359;28;20055;-79
2022/02/11 05:56:22;;;;;;;0.68;0.68;;;;;;;5.57;100.00;101211.44;5050889;28;20048;-80
2022/02/11 05:59:25;;;;;;;5.38;1.00;;;;;;;5.55;100.00;101215.81;5050127;28;20063;-79
2022/02/11 06:02:28;;;;;;;14.75;1.80;;;;;;;5.49;100.00;101220.19;5050907;28;20060;-79
2022/02/11 06:05:32;;;;;;;7.10;1.88;;;;;;;5.42;100.00;101223.03;5050118;28;20051;-80
2022/02/11 06:08:35;;;;;;;0.20;0.20;;;;;;;5.35;100.00;101223.84;5050094;28;20052;-79
2022/02/11 06:11:38;;;;;;;1.13;1.00;;;;;;;5.25;100.00;101227.50;5050664;28;20056;-80
2022/02/11 06:14:42;;;;;;;2.47;0.57;;;;;;;5.20;100.00;101225.16;5050915;28;20048;-80
2022/02/11 06:17:46;;;;;;;7.38;1.25;;;;;;;5.06;100.00;101222.50;5050133;28;20506;-79
2022/02/11 06:20:49;;;;;;;0.68;0.50;;;;;;;4.99;100.00;101228.88;5050943;28;20470;-79
2022/02/11 06:23:55;;;;;;;0.35;0.35;;;;;;;4.94;100.00;101234.00;5049890;28;20052;-80
2022/02/11 06:26:58;;;;;;;0.52;0.52;;;;;;;4.88;100.00;101238.38;5049539;28;20068;-80
2022/02/11 06:30:03;;;;;;;1.08;1.08;;;;;;;4.87;100.00;101236.84;5050078;28;20398;-80
2022/02/11 06:33:06;;;;;;;15.05;1.02;;;;;;;4.83;100.00;101244.34;5049892;28;20052;-80
2022/02/11 06:36:10;;;;;;;3.20;1.08;;;;;;;4.84;100.00;101248.66;5049762;28;20052;-79
2022/02/11 06:39:13;;;;;;;3.88;1.48;;;;;;;4.87;100.00;101245.09;5050675;28;20056;-79
2022/02/11 06:42:17;;;;;;;0.65;0.65;;;;;;;4.90;100.00;101249.81;5050582;28;20060;-79
2022/02/11 06:45:20;;;;;;;0.52;0.52;;;;;;;4.86;100.00;101254.56;5050920;28;20056;-80
2022/02/11 06:48:24;;;;;;;1.23;0.68;;;;;;;4.78;100.00;101261.31;5049838;28;20052;-79
2022/02/11 06:51:28;;;;;;;1.17;1.17;;;;;;;4.74;100.00;101268.84;5049724;28;20458;-80
2022/02/11 06:54:31;;;;;;;6.10;1.95;;;;;;;4.67;100.00;101271.63;5049605;28;20474;-80
2022/02/11 06:57:35;;;;;;;7.03;1.60;;;;;;;4.71;100.00;101269.63;5051310;28;20048;-80
2022/02/11 07:00:40;;;;;;;5.97;1.70;;;;;;;4.71;100.00;101286.19;5054249;28;20048;-79
2022/02/11 07:03:43;;;;;;;0.40;0.40;;;;;;;4.63;100.00;101292.91;5053545;28;20064;-80
2022/02/11 07:06:47;;;;;;;0.55;0.55;;;;;;;4.61;100.00;101299.59;5054186;28;20056;-79
2022/02/11 07:09:52;;;;;;;0.47;0.30;;;;;;;4.54;100.00;101298.88;5053129;28;20064;-78
2022/02/11 07:12:56;;;;;;;3.13;1.05;;;;;;;4.45;100.00;101306.78;5053536;28;20059;-78
2022/02/11 07:16:00;;;;;;;0.77;0.73;;;;;;;4.38;100.00;101309.53;5052711;28;20398;-79
2022/02/11 07:19:04;;;;;;;0.70;0.70;;;;;;;4.21;100.00;101313.13;5053053;28;20052;-79
2022/02/11 07:22:07;;;;;;;1.73;0.70;;;;;;;4.17;100.00;101306.84;5053221;28;20051;-78
2022/02/11 07:25:13;;;;;;;3.35;1.17;;;;;;;4.10;100.00;101313.13;5053920;28;20071;-78
2022/02/11 07:28:18;;;;;;;4.05;1.27;;;;;;;4.06;100.00;101323.38;5052996;28;20438;-79
2022/02/11 07:31:22;;;;;;;0.52;0.52;;;;;;;4.02;100.00;101319.06;5052695;28;20059;-78
2022/02/11 07:34:25;;;;;;;3.70;0.93;;;;;;;3.94;100.00;101321.06;5052650;28;20064;-78
2022/02/11 07:37:30;;;;;;;5.78;1.55;;;;;;;3.85;100.00;101324.19;5053304;28;20055;-78
2022/02/11 07:40:34;;;;;;;1.83;1.08;;;;;;;3.87;100.00;101326.56;5053445;28;20395;-78
2022/02/11 07:43:37;;;;;;;0.57;0.57;;;;;;;3.82;100.00;101329.69;5054082;28;20048;-79
2022/02/11 07:46:40;;;;;;;4.88;1.17;;;;;;;3.78;100.00;101334.44;5052478;28;20052;-78
2022/02/11 07:49:44;;;;;;;4.85;1.83;;;;;;;3.81;100.00;101347.44;5053576;28;20052;-78
2022/02/11 07:52:48;;;;;;;5.25;1.05;;;;;;;3.83;100.00;101348.59;5052232;28;20076;-78
2022/02/11 07:55:52;;;;;;;1.10;0.82;;;;;;;3.88;100.00;101350.16;5053083;28;20056;-78
2022/02/11 07:58:55;;;;;;;4.35;1.40;;;;;;;3.99;100.00;101361.97;5053649;28;20056;-79
2022/02/11 08:01:59;;;;;;;2.88;1.77;;;;;;;4.13;100.00;101353.72;5052277;28;20055;-80
2022/02/11 08:05:03;;;;;;;2.47;1.15;;;;;;;4.18;100.00;101358.81;5052268;28;20056;-80
2022/02/11 08:08:07;;;;;;;1.75;1.60;;;;;;;4.18;100.00;101350.53;5051992;28;20052;-80
2022/02/11 08:11:10;;;;;;;1.42;1.13;;;;;;;4.14;100.00;101358.03;5051995;28;20056;-80
2022/02/11 08:14:14;;;;;;;4.35;1.33;;;;;;;4.10;100.00;101357.25;5053272;28;20371;-80
2022/02/11 08:17:17;;;;;;;3.33;1.65;;;;;;;4.05;100.00;101360.38;5051802;28;20512;-79
2022/02/11 08:20:21;;;;;;;10.90;1.08;;;;;;;3.98;100.00;101343.88;5051797;28;20485;-80
2022/02/11 08:23:25;;;;;;;0.80;0.80;;;;;;;3.91;100.00;101351.34;5052745;28;20060;-79
2022/02/11 08:26:29;;;;;;;20.77;2.17;;;;;;;3.91;100.00;101357.66;5051892;28;20051;-79
2022/02/11 08:29:35;;;;;;;1.13;1.05;;;;;;;3.94;100.00;101354.13;5052953;28;20056;-80
2022/02/11 08:32:38;;;;;;;1.20;1.20;;;;;;;3.98;100.00;101363.16;5051816;28;20076;-79
2022/02/11 08:35:44;;;;;;;10.65;2.80;;;;;;;3.98;100.00;101365.94;5051632;28;20052;-79
2022/02/11 08:38:47;;;;;;;2.80;0.95;;;;;;;3.99;100.00;101372.19;5052236;28;20056;-79
2022/02/11 08:41:51;;;;;;;2.38;0.77;;;;;;;4.01;100.00;101370.63;5051048;28;20060;-80
2022/02/11 08:44:55;;;;;;;3.45;1.08;;;;;;;4.04;100.00;101369.84;5051055;28;20139;-79
2022/02/11 08:47:58;;;;;;;2.20;1.38;;;;;;;4.11;100.00;101372.63;5051581;28;20051;-79
2022/02/11 08:51:02;;;;;;;3.80;1.00;;;;;;;4.20;100.00;101384.00;5052382;28;20056;-79
2022/02/11 08:54:07;;;;;;;4.53;3.15;;;;;;;4.29;100.00;101381.66;5051180;28;20064;-79
2022/02/11 08:57:10;;;;;;;2.78;1.33;;;;;;;4.40;100.00;101393.44;5050591;28;20465;-79
2022/02/11 09:00:15;;;;;;;2.10;1.70;;;;;;;4.47;100.00;101398.97;5051361;28;20060;-79
2022/02/11 09:03:19;;;;;;;9.00;3.28;;;;;;;4.51;100.00;101394.22;5050959;28;20052;-79
2022/02/11 09:06:23;;;;;;;5.95;1.42;;;;;;;4.58;100.00;101388.72;5051166;28;20048;-80
2022/02/11 09:09:26;;;;;;;0.85;0.73;;;;;;;4.61;100.00;101401.69;5051349;28;20048;-79
2022/02/11 09:12:30;;;;;;;0.73;0.63;;;;;;;4.63;100.00;101403.28;5051118;28;20549;-81
2022/02/11 09:15:34;;;;;;;1.42;0.80;;;;;;;4.69;100.00;101408.00;5050399;28;20052;-79
2022/02/11 09:20:59;;;;;;;3.55;2.05;;;;;;;4.47;100.00;101421.03;5081193;27;20753;-79
2022/02/11 09:24:03;;;;;;;4.32;1.25;;;;;;;4.79;100.00;101414.66;5090967;28;20055;-80
2022/02/11 09:27:06;;;;;;;0.80;0.80;;;;;;;4.94;100.00;101416.19;5058741;28;20056;-80
2022/02/11 09:30:19;;;;;;;3.47;1.65;;;;;;;5.03;100.00;101408.28;5047103;28;20410;-80
2022/02/11 09:33:23;;;;;;;1.30;0.88;;;;;;;5.17;100.00;101413.75;5047284;28;20048;-80
2022/02/11 09:36:27;;;;;;;1.52;1.40;;;;;;;5.34;100.00;101415.66;5046923;28;20056;-79
2022/02/11 09:39:30;;;;;;;0.85;0.85;;;;;;;5.47;100.00;101410.44;5047062;28;20060;-79
2022/02/11 09:42:33;;;;;;;1.65;1.30;;;;;;;5.63;100.00;101417.06;5027162;28;20072;-79
2022/02/11 09:45:37;;;;;;;0.35;0.32;;;;;;;5.69;100.00;101409.16;5027231;28;20048;-79
2022/02/11 09:48:41;;;;;;;0.50;0.43;;;;;;;5.77;100.00;101400.41;5038352;28;20052;-81
2022/02/11 09:51:46;;;;;;;0.28;0.28;;;;;;;5.88;100.00;101403.91;5038461;28;20053;-79
2022/02/11 09:55:31;;;;;;;2.20;0.90;;;;;;;5.97;100.00;101415.31;5027002;28;20068;-79
2022/02/11 09:58:16;;;;;;;0.85;0.77;;;;;;;5.97;100.00;101406.22;5046121;28;20052;-80
2022/02/11 10:01:21;;;;;;;0.55;0.55;;;;;;;6.06;100.00;101410.09;5047033;28;20052;-79
2022/02/11 10:04:25;;;;;;;18.92;1.95;;;;;;;6.29;100.00;101411.50;5047151;28;20048;-79
2022/02/11 10:07:29;;;;;;;0.60;0.55;;;;;;;6.48;100.00;101420.00;5046409;28;20052;-79
2022/02/11 10:10:39;;;;;;;6.85;1.10;;;;;;;6.82;100.00;101428.38;5046705;28;20521;-79
2022/02/11 10:13:43;;;;;;;1.42;1.33;;;;;;;7.13;100.00;101430.00;5047332;28;20056;-80
2022/02/11 10:16:53;;;;;;;0.50;0.43;;;;;;;7.43;100.00;101430.03;5046406;28;20068;-80
2022/02/11 10:19:57;;;;;;;1.48;0.50;;;;;;;7.64;100.00;101426.97;5046541;28;20056;-80
2022/02/11 10:23:20;;;;;;;4.20;0.40;;;;;;;7.82;100.00;101428.72;5046495;28;20055;-80
2022/02/11 10:26:26;;;;;;;0.40;0.40;;;;;;;7.95;100.00;101436.03;5047225;28;20067;-81
2022/02/11 10:29:40;;;;;;;1.35;0.50;;;;;;;7.92;100.00;101431.34;5046330;28;20056;-80
2022/02/11 10:32:49;;;;;;;13.02;1.00;;;;;;;7.84;100.00;101440.19;5033570;28;20052;-80
2022/02/11 10:35:56;;;;;;;6.38;1.25;;;;;;;7.66;100.00;101434.88;5032794;28;20064;-81
2022/02/11 10:39:19;;;;;;;0.70;0.70;;;;;;;7.58;100.00;101436.94;5032585;28;20056;-79
2022/02/11 10:42:41;;;;;;;0.45;0.45;;;;;;;7.61;100.00;101430.56;5033217;28;20052;-81
2022/02/11 10:45:45;;;;;;;0.30;0.30;;;;;;;7.69;100.00;101427.72;5033776;28;20098;-81
2022/02/11 10:48:48;;;;;;;4.68;1.75;;;;;;;7.64;100.00;101440.81;5033524;28;20076;-82
2022/02/11 10:51:52;;;;;;;5.75;0.65;;;;;;;7.58;100.00;101434.16;5032824;28;20052;-85
2022/02/11 10:54:56;;;;;;;0.30;0.30;;;;;;;7.55;100.00;101437.00;5033752;28;20117;-82
2022/02/11 10:58:00;;;;;;;1.15;0.50;;;;;;;7.57;100.00;101429.84;5033369;28;20052;-82
2022/02/11 11:01:05;;;;;;;2.17;0.88;;;;;;;7.55;100.00;101432.25;5033604;28;20052;-81
2022/02/11 11:04:08;;;;;;;2.42;0.90;;;;;;;7.55;100.00;101431.47;5032680;28;20052;-82
2022/02/11 11:07:23;;;;;;;0.40;0.40;;;;;;;7.57;100.00;101429.84;5032350;28;20049;-81
2022/02/11 11:10:26;;;;;;;0.85;0.70;;;;;;;7.61;100.00;101425.03;5031872;28;20049;-81
2022/02/11 11:13:31;;;;;;;0.30;0.30;;;;;;;7.68;100.00;101426.13;5033043;28;20434;-81
2022/02/11 11:16:36;;;;;;;0.40;0.40;;;;;;;7.82;100.00;101434.25;5032132;28;20064;-81
2022/02/11 11:19:39;;;;;;;10.55;0.52;;;;;;;7.98;100.00;101426.88;5032470;28;20052;-79
2022/02/11 11:22:51;;;;;;;1.65;0.70;;;;;;;8.23;100.00;101421.72;5032105;28;20060;-79
2022/02/11 11:26:09;;;;;;;1.75;0.75;;;;;;;8.48;100.00;101418.56;5033297;28;20052;-79
2022/02/11 11:29:15;;;;;;;1.10;0.63;;;;;;;8.58;100.00;101420.34;5032652;28;20048;-79
2022/02/11 11:32:18;;;;;;;0.88;0.35;;;;;;;8.63;100.00;101411.53;5032811;28;20060;-79
2022/02/11 11:35:23;;;;;;;0.63;0.40;;;;;;;8.77;100.00;101422.38;5031758;28;20063;-79
2022/02/11 11:38:44;;;;;;;0.30;0.30;;;;;;;8.84;100.00;101422.25;5031117;28;20280;-79
2022/02/11 11:42:07;;;;;;;0.90;0.90;;;;;;;8.89;100.00;101423.75;5031056;28;20061;-80
2022/02/11 11:45:26;;;;;;;0.40;0.40;;;;;;;9.01;100.00;101418.34;5031710;28;20052;-80
2022/02/11 11:48:50;;;;;;;5.60;1.27;;;;;;;9.22;100.00;101411.59;5031734;28;20088;-80
2022/02/11 11:51:53;;;;;;;0.55;0.52;;;;;;;9.22;100.00;101419.13;5031264;28;20052;-80
2022/02/11 11:55:17;;;;;;;4.80;0.93;;;;;;;9.23;100.00;101412.34;5032059;28;20068;-80
2022/02/11 11:58:34;;;;;;;2.28;0.68;;;;;;;9.22;100.00;101408.03;5032273;28;20124;-78
2022/02/11 12:02:07;;;;;;;0.90;0.68;;;;;;;9.39;100.00;101401.31;5032498;28;20057;-79
2022/02/11 12:05:10;;;;;;;8.63;1.80;;;;;;;9.45;100.00;101400.38;5030754;28;20137;-79
2022/02/11 12:08:15;;;;;;;0.85;0.38;;;;;;;9.51;100.00;101387.50;5030946;28;20048;-78
2022/02/11 12:11:22;;;;;;;0.50;0.50;;;;;;;9.50;100.00;101387.94;5031660;28;20056;-79
2022/02/11 12:14:27;;;;;;;4.85;0.60;;;;;;;9.46;100.00;101390.03;5030840;28;20056;-79
2022/02/11 12:17:31;;;;;;;5.85;0.75;;;;;;;9.53;100.00;101373.19;5031500;28;20052;-81
2022/02/11 12:20:37;;;;;;;0.82;0.52;;;;;;;9.58;100.00;101369.88;5031897;28;20053;-81
2022/02/11 12:30:27;;;;;;;5.57;0.60;;;;;;;9.95;100.00;101361.06;5030050;28;20064;-79
2022/02/11 12:33:31;;;;;;;0.75;0.43;;;;;;;10.01;100.00;101353.75;5031166;28;20052;-78
2022/02/11 12:36:34;;;;;;;7.63;0.90;;;;;;;10.04;100.00;101352.88;5031059;28;20052;-81
2022/02/11 12:39:37;;;;;;;0.30;0.30;;;;;;;10.08;100.00;101347.22;5024284;28;20056;-79
2022/02/11 12:42:42;;;;;;;1.40;0.80;;;;;;;10.22;100.00;101353.22;5031141;28;20056;-78
2022/02/11 12:45:45;;;;;;;1.95;0.52;;;;;;;10.25;100.00;101346.81;5025369;28;20064;-79
2022/02/11 12:48:50;;;;;;;0.20;0.20;;;;;;;10.31;100.00;101339.47;5011336;28;20068;-78
2022/02/11 12:51:57;;;;;;;2.25;0.80;;;;;;;10.34;100.00;101335.03;5011074;28;20068;-78
2022/02/11 12:55:04;;;;;;;2.75;0.47;;;;;;;10.42;100.00;101328.06;5010196;28;20049;-78
2022/02/11 12:58:09;;;;;;;1.45;1.05;;;;;;;10.44;100.00;101339.53;5027801;28;20057;-78
2022/02/11 13:01:13;;;;;;;0.85;0.82;;;;;;;10.58;100.00;101337.19;5030910;28;20056;-78
2022/02/11 13:04:20;;;;;;;0.88;0.70;;;;;;;10.80;100.00;101337.38;5030841;28;20053;-78
2022/02/11 13:07:24;;;;;;;1.55;0.38;;;;;;;10.96;100.00;101336.53;5030901;28;20052;-78
2022/02/11 13:10:32;;;;;;;8.60;0.45;;;;;;;11.03;100.00;101333.50;5031042;28;20053;-80
2022/02/11 13:13:36;;;;;;;0.35;0.22;;;;;;;10.90;100.00;101335.47;5031356;28;20403;-80
2022/02/11 13:16:40;;;;;;;9.52;0.80;;;;;;;10.75;100.00;101328.75;5029797;28;20060;-78
2022/02/11 13:19:48;;;;;;;1.45;0.40;;;;;;;10.70;100.00;101326.53;5030220;28;20052;-82
2022/02/11 13:22:51;;;;;;;0.55;0.22;;;;;;;10.68;100.00;101323.41;5029548;28;20057;-80
2022/02/11 13:25:57;;;;;;;0.20;0.20;;;;;;;10.61;100.00;101319.56;5029867;28;20068;-81
2022/02/11 13:29:01;;;;;;;2.13;0.73;;;;;;;10.58;100.00;101326.03;5030199;28;20064;-80
2022/02/11 13:32:05;;;;;;;1.70;0.57;;;;;;;10.60;100.00;101323.59;5030727;28;20524;-78
2022/02/11 13:35:10;;;;;;;1.67;0.45;;;;;;;10.59;100.00;101316.44;5030976;28;20056;-79
2022/02/11 13:38:28;;;;;;;7.50;0.82;;;;;;;10.57;100.00;101318.88;5030244;28;20052;-78
2022/02/11 13:41:38;;;;;;;6.75;1.02;;;;;;;10.58;100.00;101320.47;5030494;28;20410;-78
2022/02/11 13:44:59;;;;;;;2.60;1.65;;;;;;;10.58;100.00;101312.09;5029888;28;20057;-79
2022/02/11 13:48:08;;;;;;;0.20;0.20;;;;;;;10.51;100.00;101315.06;5030618;28;20044;-79
2022/02/11 13:51:17;;;;;;;0.77;0.47;;;;;;;10.46;100.00;101312.81;5030642;28;20068;-78
2022/02/11 13:54:20;;;;;;;7.82;0.85;;;;;;;10.38;100.00;101305.88;5029821;28;20053;-78
2022/02/11 13:57:25;;;;;;;1.00;0.60;;;;;;;10.34;100.00;101312.78;5029499;28;20049;-79
2022/02/11 14:00:36;;;;;;;1.25;0.43;;;;;;;10.26;100.00;101308.63;5030651;28;20056;-78
2022/02/11 14:03:44;;;;;;;5.25;0.43;;;;;;;10.22;100.00;101302.38;5029753;28;20095;-78
2022/02/11 14:06:53;;;;;;;1.20;0.20;;;;;;;10.12;100.00;101304.19;5031862;28;20053;-79
2022/02/11 14:09:56;;;;;;;0.32;0.20;;;;;;;10.10;100.00;101301.03;5034365;28;20056;-81
2022/02/11 14:13:08;;;;;;;0.73;0.30;;;;;;;10.06;100.00;101303.13;5033650;28;20057;-77
2022/02/11 14:16:12;;;;;;;1.38;0.77;;;;;;;10.00;100.00;101290.97;5033103;28;20107;-79
2022/02/11 14:19:17;;;;;;;0.57;0.35;;;;;;;9.94;100.00;101295.47;5034086;28;20056;-80
2022/02/11 14:22:21;;;;;;;1.27;0.43;;;;;;;9.94;100.00;101289.91;5035052;28;20065;-81
2022/02/11 14:25:25;;;;;;;8.27;1.15;;;;;;;9.92;100.00;101284.00;5015136;28;20065;-80
2022/02/11 14:28:30;;;;;;;0.80;0.45;;;;;;;9.93;100.00;101285.56;5017121;28;20053;-79
2022/02/11 14:31:33;;;;;;;0.52;0.40;;;;;;;9.91;100.00;101276.88;5028993;28;20052;-76
2022/02/11 14:34:37;;;;;;;1.00;0.73;;;;;;;9.91;100.00;101265.75;5033739;28;20064;-78
2022/02/11 14:37:40;;;;;;;0.22;0.22;;;;;;;9.99;100.00;101261.56;5032922;28;20052;-77
2022/02/11 14:44:08;;;;;;;1.13;0.38;;;;;;;10.10;100.00;101255.72;5033594;28;20056;-76
2022/02/11 14:47:13;;;;;;;0.13;0.13;;;;;;;10.15;100.00;101246.88;5032550;28;20072;-76
2022/02/11 14:50:17;;;;;;;1.02;0.75;;;;;;;10.19;100.00;101242.78;5033021;28;20061;-77
2022/02/11 14:53:21;;;;;;;0.20;0.20;;;;;;;10.24;100.00;101244.25;5033048;28;20056;-77
2022/02/11 14:56:24;;;;;;;0.30;0.30;;;;;;;10.19;100.00;101231.63;5033304;28;20078;-78
2022/02/11 14:59:28;;;;;;;0.30;0.30;;;;;;;10.21;100.00;101234.75;5033175;28;20048;-77
2022/02/11 15:02:33;;;;;;;0.85;0.52;;;;;;;10.20;100.00;101233.19;5033283;28;20060;-77
2022/02/11 15:05:37;;;;;;;1.38;0.30;;;;;;;10.14;100.00;101229.38;5033031;28;20056;-76
2022/02/11 15:08:40;;;;;;;0.28;0.22;;;;;;;10.07;100.00;101226.00;5032845;28;20049;-76
2022/02/11 15:11:44;;;;;;;0.20;0.20;;;;;;;10.04;100.00;101229.63;5032998;28;20395;-77
2022/02/11 15:14:47;;;;;;;0.30;0.30;;;;;;;10.04;100.00;101226.84;5031249;28;20061;-80
2022/02/11 15:17:50;;;;;;;0.38;0.38;;;;;;;9.93;100.00;101221.56;5026555;28;20049;-82
2022/02/11 15:20:53;;;;;;;6.90;0.88;;;;;;;9.93;100.00;101218.78;5023145;28;20061;-79
2022/02/11 15:23:57;;;;;;;3.20;0.52;;;;;;;9.86;100.00;101218.97;5031692;28;20052;-82
2022/02/11 15:27:00;;;;;;;0.43;0.43;;;;;;;9.84;100.00;101222.19;5032677;28;20510;-81
2022/02/11 15:30:04;;;;;;;7.43;0.85;;;;;;;9.74;100.00;101211.34;5033236;28;20076;-81
2022/02/11 15:33:08;;;;;;;11.00;0.65;;;;;;;9.67;100.00;101211.53;5029983;28;20193;-80
2022/02/11 15:36:12;;;;;;;6.47;0.63;;;;;;;9.65;100.00;101213.97;5014583;28;20056;-80
2022/02/11 15:39:15;;;;;;;7.28;1.45;;;;;;;9.59;100.00;101215.72;5030631;28;20049;-81
2022/02/11 15:42:18;;;;;;;10.60;1.92;;;;;;;9.47;100.00;101214.41;5033040;28;20060;-84
2022/02/11 15:45:22;;;;;;;2.40;1.05;;;;;;;9.44;100.00;101211.72;5033645;28;20049;-84
2022/02/11 15:48:26;;;;;;;0.63;0.63;;;;;;;9.37;100.00;101209.91;5035748;28;20065;-84
2022/02/11 15:51:31;;;;;;;2.50;1.25;;;;;;;9.30;100.00;101214.84;5012064;28;20073;-83
2022/02/11 15:54:34;;;;;;;4.53;1.13;;;;;;;9.27;100.00;101210.91;5025209;28;20080;-83
2022/02/11 15:57:38;;;;;;;1.00;0.50;;;;;;;9.20;100.00;101204.75;5033733;28;20056;-83
2022/02/11 16:00:42;;;;;;;23.20;1.33;;;;;;;9.14;100.00;101199.72;5032621;28;20475;-82
2022/02/11 16:03:45;;;;;;;1.15;1.08;;;;;;;9.04;100.00;101192.41;5031558;28;20060;-82
2022/02/11 16:06:49;;;;;;;0.82;0.57;;;;;;;9.00;100.00;101205.63;5031900;28;20048;-83
2022/02/11 16:09:53;;;;;;;3.83;0.75;;;;;;;8.94;100.00;101193.44;5032727;28;20056;-84
2022/02/11 16:12:57;;;;;;;1.02;0.65;;;;;;;8.86;100.00;101192.03;5030488;28;20065;-83
2022/02/11 16:16:00;;;;;;;1.88;0.95;;;;;;;8.78;100.00;101189.84;5011704;28;20057;-83
2022/02/11 16:19:04;;;;;;;4.20;1.20;;;;;;;8.71;100.00;101182.47;5029898;28;20064;-83
2022/02/11 16:22:07;;;;;;;2.72;1.02;;;;;;;8.70;100.00;101174.56;5032627;28;20056;-84
2022/02/11 16:25:10;;;;;;;1.05;0.32;;;;;;;8.60;100.00;101181.91;5031541;28;20053;-84
2022/02/11 16:28:15;;;;;;;3.85;1.08;;;;;;;8.62;100.00;101176.69;5029891;28;20056;-84
2022/02/11 16:31:21;;;;;;;0.57;0.32;;;;;;;8.54;100.00;101180.84;5011793;28;20057;-85
2022/02/11 16:34:26;;;;;;;4.47;1.58;;;;;;;8.49;100.00;101184.13;5035160;28;20053;-84
2022/02/11 16:37:29;;;;;;;0.50;0.50;;;;;;;8.47;100.00;101180.22;5024314;28;20053;-84
2022/02/11 16:40:33;;;;;;;2.60;0.52;;;;;;;8.39;100.00;101174.03;5031741;28;20060;-85
2022/02/11 16:43:36;;;;;;;0.85;0.65;;;;;;;8.31;100.00;101181.75;5032114;28;20072;-84
2022/02/11 16:46:40;;;;;;;1.00;0.57;;;;;;;8.18;100.00;101169.69;5033146;28;20060;-85
2022/02/11 16:49:43;;;;;;;0.55;0.47;;;;;;;8.13;100.00;101167.41;5018124;28;20057;-85
2022/02/11 16:52:46;;;;;;;0.93;0.93;;;;;;;8.03;100.00;101170.41;5012107;28;20057;-84
2022/02/11 16:55:50;;;;;;;0.52;0.52;;;;;;;7.94;100.00;101178.50;5013369;28;20064;-86
2022/02/11 16:58:53;;;;;;;13.20;1.25;;;;;;;7.82;100.00;101173.59;5055058;28;20052;-90
2022/02/11 17:01:59;;;;;;;9.02;1.13;;;;;;;7.75;100.00;101176.47;5032852;28;20636;-85
2022/02/11 17:05:03;;;;;;;3.83;1.38;;;;;;;7.65;100.00;101169.91;5031898;28;20048;-79
2022/02/11 17:08:07;;;;;;;4.32;0.95;;;;;;;7.54;100.00;101166.53;5028631;28;20052;-80
2022/02/11 17:11:11;;;;;;;3.92;1.10;;;;;;;7.36;100.00;101177.16;5011060;28;20491;-82
2022/02/11 17:14:15;;;;;;;6.38;1.40;;;;;;;7.35;100.00;101173.59;5020948;28;20064;-80
2022/02/11 17:17:18;;;;;;;6.07;1.38;;;;;;;7.35;100.00;101176.38;5030275;28;20531;-79
2022/02/11 17:20:22;;;;;;;1.40;0.65;;;;;;;7.29;100.00;101175.28;5031158;28;20061;-84
2022/02/11 17:23:26;;;;;;;6.28;0.57;;;;;;;7.26;100.00;101170.59;5029569;28;20053;-82
2022/02/11 17:26:31;;;;;;;1.13;0.43;;;;;;;7.16;100.00;101165.22;5029955;28;20068;-84
2022/02/11 17:29:34;;;;;;;0.65;0.40;;;;;;;7.01;100.00;101161.91;5025887;28;20064;-83
2022/02/11 17:32:38;;;;;;;11.55;0.77;;;;;;;6.88;100.00;101155.38;5030289;28;20056;-82
2022/02/11 17:35:41;;;;;;;0.68;0.68;;;;;;;6.76;100.00;101161.47;5029488;28;20442;-81
2022/02/11 17:38:45;;;;;;;7.53;1.27;;;;;;;6.72;100.00;101160.75;5029904;28;20048;-82
2022/02/11 17:41:48;;;;;;;1.92;0.93;;;;;;;6.69;100.00;101159.59;5032671;28;20088;-83
2022/02/11 17:44:52;;;;;;;0.63;0.63;;;;;;;6.69;100.00;101161.59;5034429;28;20406;-82
2022/02/11 17:47:56;;;;;;;8.90;1.38;;;;;;;6.66;100.00;101159.66;5033917;28;20060;-82
2022/02/11 17:51:00;;;;;;;2.47;1.33;;;;;;;6.56;100.00;101166.13;5034439;28;20502;-83
2022/02/11 17:54:03;;;;;;;0.98;0.75;;;;;;;6.52;100.00;101157.09;5034449;28;20064;-82
2022/02/11 17:57:07;;;;;;;1.30;0.80;;;;;;;6.43;100.00;101159.59;5033976;28;20055;-81
2022/02/11 18:00:10;;;;;;;7.97;1.42;;;;;;;6.37;100.00;101163.97;5013602;28;20056;-81
2022/02/11 18:03:14;;;;;;;0.28;0.28;;;;;;;6.35;100.00;101166.38;5014533;28;20509;-81
2022/02/11 18:06:17;;;;;;;0.50;0.40;;;;;;;6.32;100.00;101158.94;5016699;28;20125;-83
2022/02/11 18:09:21;;;;;;;0.77;0.77;;;;;;;6.30;100.00;101164.09;5032968;28;20057;-83
2022/02/11 18:12:26;;;;;;;0.10;0.10;;;;;;;6.21;100.00;101167.38;5033167;28;20509;-81
2022/02/11 18:15:31;;;;;;;3.38;1.08;;;;;;;6.11;100.00;101168.25;5032154;28;20068;-77
2022/02/11 18:18:35;;;;;;;1.52;0.40;;;;;;;6.00;100.00;101157.31;5012529;28;20068;-77
2022/02/11 18:21:39;;;;;;;2.90;1.05;;;;;;;5.91;100.00;101148.75;5013644;28;20073;-77